Time;durP1;ratioP1;P1;durP2;ratioP2;P2;SDS_P1;SDS_P2;PMS_P1;PMS_P2;Temp;Humidity;BMP_temperature;BMP_pressure;BME280_temperature;BME280_humidity;BME280_pressure;Samples;Min_cycle;Max_cycle;Signal;HPM_P1;HPM_P2
2022/11/07 00:01:33;;;;;;;4.33;3.97;;;10.60;99.90;;;;;;5097486;28;20203;-67
2022/11/07 00:03:59;;;;;;;6.20;4.17;;;10.60;99.90;;;;;;5095529;28;20181;-67
2022/11/07 00:06:25;;;;;;;4.47;3.77;;;10.60;99.90;;;;;;5096755;28;20242;-67
2022/11/07 00:08:52;;;;;;;5.83;3.90;;;10.60;99.90;;;;;;5096701;28;20165;-67
2022/11/07 00:11:19;;;;;;;4.97;4.33;;;10.50;99.90;;;;;;5097339;28;20165;-67
2022/11/07 00:13:44;;;;;;;6.80;4.40;;;10.60;99.90;;;;;;5056342;28;20746;-67
2022/11/07 00:16:10;;;;;;;4.97;3.77;;;10.60;99.90;;;;;;5056468;28;20210;-67
2022/11/07 00:18:36;;;;;;;4.93;3.57;;;10.50;99.90;;;;;;5056309;28;20175;-67
2022/11/07 00:21:04;;;;;;;3.87;3.57;;;10.60;99.90;;;;;;5056362;28;20178;-67
2022/11/07 00:23:29;;;;;;;4.20;3.80;;;10.50;99.90;;;;;;5056394;28;20193;-68
2022/11/07 00:26:04;;;;;;;5.47;3.73;;;10.50;99.90;;;;;;5056241;28;20686;-67
2022/11/07 00:28:34;;;;;;;4.07;3.67;;;10.60;99.90;;;;;;5056540;28;20564;-67
2022/11/07 00:31:00;;;;;;;4.53;4.03;;;10.50;99.90;;;;;;5056472;28;20189;-67
2022/11/07 00:33:25;;;;;;;4.70;4.30;;;10.50;99.90;;;;;;5056360;28;20210;-67
2022/11/07 00:35:51;;;;;;;4.20;3.80;;;10.50;99.90;;;;;;5056429;28;20585;-68
2022/11/07 00:38:17;;;;;;;4.97;3.80;;;10.50;99.90;;;;;;5056781;28;20239;-67
2022/11/07 00:40:42;;;;;;;4.90;3.43;;;10.50;99.90;;;;;;5055880;28;20228;-67
2022/11/07 00:43:08;;;;;;;6.80;4.10;;;10.50;99.90;;;;;;5086280;28;20224;-67
2022/11/07 00:45:34;;;;;;;4.53;4.07;;;10.40;99.90;;;;;;5095968;28;20197;-67
2022/11/07 00:48:00;;;;;;;4.53;3.77;;;10.40;99.90;;;;;;5096527;28;20181;-67
2022/11/07 00:50:26;;;;;;;5.80;3.93;;;10.40;99.90;;;;;;5096064;28;20238;-67
2022/11/07 00:52:51;;;;;;;4.30;3.90;;;10.40;99.90;;;;;;5095958;28;20665;-67
2022/11/07 00:55:17;;;;;;;4.30;3.50;;;10.40;99.90;;;;;;5095806;28;20634;-67
2022/11/07 00:57:43;;;;;;;5.77;3.77;;;10.40;99.90;;;;;;5095843;28;20189;-67
2022/11/07 01:00:09;;;;;;;4.40;4.00;;;10.40;99.90;;;;;;5094944;28;20572;-67
2022/11/07 01:02:35;;;;;;;4.03;3.70;;;10.40;99.90;;;;;;5096027;28;20540;-67
2022/11/07 01:05:09;;;;;;;3.70;3.40;;;10.40;99.90;;;;;;5096263;28;20179;-66
2022/11/07 01:07:36;;;;;;;3.77;3.40;;;10.40;99.90;;;;;;5096033;28;20680;-67
2022/11/07 01:10:03;;;;;;;6.57;3.77;;;10.40;99.90;;;;;;5095722;28;20181;-67
2022/11/07 01:12:28;;;;;;;4.10;3.80;;;10.50;99.90;;;;;;5094168;28;20216;-67
2022/11/07 01:14:54;;;;;;;4.90;3.80;;;10.50;99.90;;;;;;5096169;28;20540;-67
2022/11/07 01:17:20;;;;;;;3.80;3.40;;;10.50;99.90;;;;;;5095610;28;20200;-67
2022/11/07 01:19:45;;;;;;;3.70;3.33;;;10.60;99.90;;;;;;5095510;28;20591;-67
2022/11/07 01:22:11;;;;;;;4.03;3.63;;;10.60;99.90;;;;;;5095423;28;20181;-67
2022/11/07 01:24:37;;;;;;;3.63;3.33;;;10.70;99.90;;;;;;5095588;28;20173;-67
2022/11/07 01:27:03;;;;;;;3.90;3.60;;;10.70;99.90;;;;;;5095271;28;20239;-67
2022/11/07 01:29:28;;;;;;;3.63;3.33;;;10.70;99.90;;;;;;5095964;28;20545;-67
2022/11/07 01:31:54;;;;;;;4.23;3.30;;;10.70;99.90;;;;;;5093937;28;20209;-67
2022/11/07 01:34:20;;;;;;;3.70;3.40;;;10.70;99.90;;;;;;5093910;28;20634;-67
2022/11/07 01:36:45;;;;;;;3.80;3.20;;;10.70;99.90;;;;;;5095260;28;20238;-67
2022/11/07 01:39:11;;;;;;;3.93;3.53;;;10.70;99.90;;;;;;5095479;28;20199;-67
2022/11/07 01:41:38;;;;;;;4.03;3.00;;;10.70;99.90;;;;;;5095142;28;20403;-67
2022/11/07 01:44:07;;;;;;;3.80;3.50;;;10.70;99.90;;;;;;5095055;28;20281;-67
2022/11/07 01:46:36;;;;;;;4.13;3.47;;;10.70;99.90;;;;;;5094833;28;20209;-67
2022/11/07 01:49:09;;;;;;;3.80;3.43;;;10.70;99.90;;;;;;5094761;28;20184;-67
2022/11/07 01:51:51;;;;;;;4.97;3.47;;;10.70;99.90;;;;;;5095289;28;20166;-67
2022/11/07 01:54:21;;;;;;;5.43;3.80;;;10.70;99.90;;;;;;5094654;28;20162;-67
2022/11/07 01:56:48;;;;;;;3.37;3.13;;;10.60;99.90;;;;;;5094838;28;20272;-67
2022/11/07 01:59:17;;;;;;;4.60;3.27;;;10.50;99.90;;;;;;5094748;28;20172;-67
2022/11/07 02:01:43;;;;;;;3.60;3.27;;;10.50;99.90;;;;;;5095117;28;20173;-67
2022/11/07 02:04:10;;;;;;;3.97;3.40;;;10.50;99.90;;;;;;5094976;28;20187;-67
2022/11/07 02:06:50;;;;;;;3.97;3.57;;;10.50;99.90;;;;;;5093231;28;20216;-67
2022/11/07 02:09:15;;;;;;;4.90;3.50;;;10.60;99.90;;;;;;5094557;28;20625;-67
2022/11/07 02:11:41;;;;;;;4.97;3.20;;;10.60;99.90;;;;;;5094149;28;20181;-67
2022/11/07 02:14:07;;;;;;;4.53;3.33;;;10.50;99.90;;;;;;5094710;28;20243;-67
2022/11/07 02:16:36;;;;;;;6.17;3.73;;;10.50;99.90;;;;;;5094907;28;20689;-67
2022/11/07 02:19:05;;;;;;;4.00;3.17;;;10.50;99.90;;;;;;5094561;28;20230;-67
2022/11/07 02:21:45;;;;;;;6.77;3.87;;;10.50;99.90;;;;;;5094337;28;20165;-67
2022/11/07 02:24:28;;;;;;;6.60;3.70;;;10.40;99.90;;;;;;5094173;28;20641;-67
2022/11/07 02:26:56;;;;;;;5.20;3.20;;;10.40;99.90;;;;;;5094240;28;20216;-67
2022/11/07 02:29:23;;;;;;;6.93;3.57;;;10.40;99.90;;;;;;5094160;28;20264;-67
2022/11/07 02:32:03;;;;;;;4.97;3.33;;;10.40;99.90;;;;;;5092701;28;20232;-67
2022/11/07 02:34:29;;;;;;;4.93;3.47;;;10.40;99.90;;;;;;5094576;28;20166;-67
2022/11/07 02:36:56;;;;;;;5.87;3.50;;;10.40;99.90;;;;;;5092653;28;20197;-67
2022/11/07 02:39:22;;;;;;;4.00;3.67;;;10.40;99.90;;;;;;5093856;28;20538;-67
2022/11/07 02:41:49;;;;;;;3.63;3.33;;;10.40;99.90;;;;;;5093919;28;20192;-67
2022/11/07 02:44:15;;;;;;;5.23;3.50;;;10.40;99.90;;;;;;5092626;28;20215;-68
2022/11/07 02:46:41;;;;;;;8.20;3.37;;;10.40;99.90;;;;;;5092574;28;20273;-67
2022/11/07 02:49:07;;;;;;;5.20;3.60;;;10.40;99.90;;;;;;5092665;28;20267;-67
2022/11/07 02:51:32;;;;;;;4.70;3.80;;;10.40;99.90;;;;;;5094088;28;20207;-67
2022/11/07 02:53:58;;;;;;;4.00;3.47;;;10.50;99.90;;;;;;5093642;28;20173;-67
2022/11/07 02:56:24;;;;;;;4.80;3.60;;;10.40;99.90;;;;;;5093752;28;20201;-67
2022/11/07 02:58:51;;;;;;;4.33;3.30;;;10.40;99.90;;;;;;5094020;28;20173;-67
2022/11/07 03:01:17;;;;;;;4.17;3.50;;;10.40;99.90;;;;;;5093763;28;20200;-67
2022/11/07 03:03:46;;;;;;;4.47;3.40;;;10.40;99.90;;;;;;5093737;28;20181;-67
2022/11/07 03:06:18;;;;;;;7.03;4.13;;;10.40;99.90;;;;;;5093945;28;20196;-67
2022/11/07 03:08:44;;;;;;;6.77;3.77;;;10.50;99.90;;;;;;5093769;28;20250;-67
2022/11/07 03:11:10;;;;;;;7.47;3.97;;;10.40;99.90;;;;;;5093667;28;20177;-67
2022/11/07 03:13:37;;;;;;;5.77;3.97;;;10.40;99.90;;;;;;5092194;28;20213;-67
2022/11/07 03:16:07;;;;;;;5.17;3.67;;;10.40;99.90;;;;;;5093521;28;20195;-67
2022/11/07 03:18:33;;;;;;;4.33;3.40;;;10.30;99.90;;;;;;5094121;28;20557;-67
2022/11/07 03:20:59;;;;;;;4.33;3.53;;;10.40;99.90;;;;;;5093522;28;20177;-67
2022/11/07 03:23:25;;;;;;;6.07;3.17;;;10.40;99.90;;;;;;5096706;28;20177;-67
2022/11/07 03:25:51;;;;;;;6.70;3.50;;;10.40;99.90;;;;;;5096151;28;20197;-67
2022/11/07 03:28:16;;;;;;;4.37;3.50;;;10.40;99.90;;;;;;5097592;28;20177;-67
2022/11/07 03:30:42;;;;;;;9.67;3.77;;;10.40;99.90;;;;;;5097472;28;20181;-67
2022/11/07 03:33:08;;;;;;;6.33;3.63;;;10.40;99.90;;;;;;5097512;28;20553;-67
2022/11/07 03:35:34;;;;;;;3.37;3.10;;;10.50;99.90;;;;;;5097509;28;20184;-67
2022/11/07 03:38:00;;;;;;;4.33;3.73;;;10.50;99.90;;;;;;5097498;28;20264;-67
2022/11/07 03:40:26;;;;;;;5.80;3.77;;;10.50;99.90;;;;;;5097368;28;20169;-67
2022/11/07 03:42:52;;;;;;;4.80;3.40;;;10.50;99.90;;;;;;5097249;28;20185;-67
2022/11/07 03:45:18;;;;;;;4.07;3.57;;;10.50;99.90;;;;;;5097228;28;20663;-67
2022/11/07 03:47:44;;;;;;;4.63;3.47;;;10.50;99.90;;;;;;5096224;28;20571;-67
2022/11/07 03:50:16;;;;;;;13.93;3.50;;;10.50;99.90;;;;;;5097602;28;20189;-67
2022/11/07 03:52:42;;;;;;;6.13;3.60;;;10.50;99.90;;;;;;5097354;28;20202;-67
2022/11/07 03:55:09;;;;;;;4.60;3.30;;;10.60;99.90;;;;;;5097245;28;20295;-67
2022/11/07 03:57:35;;;;;;;6.03;4.13;;;10.60;99.90;;;;;;5097033;28;20560;-67
2022/11/07 04:00:00;;;;;;;6.43;3.40;;;10.60;99.90;;;;;;5097135;28;20173;-67
2022/11/07 04:02:26;;;;;;;3.87;3.10;;;10.60;99.90;;;;;;5097553;28;20173;-67
2022/11/07 04:04:52;;;;;;;6.93;4.07;;;10.50;99.90;;;;;;5095849;28;20200;-67
2022/11/07 04:07:17;;;;;;;5.70;3.53;;;10.50;99.90;;;;;;5101038;28;20639;-67
2022/11/07 04:09:43;;;;;;;7.73;3.93;;;10.50;99.90;;;;;;5099883;28;20233;-67
2022/11/07 04:17:38;;;;;;;6.13;3.57;;;10.40;99.90;;;;;;5096952;28;20207;-67
2022/11/07 04:20:05;;;;;;;5.27;3.43;;;10.40;99.90;;;;;;5097118;28;20169;-67
2022/11/07 04:22:31;;;;;;;5.23;3.50;;;10.40;99.90;;;;;;5096623;28;20701;-67
2022/11/07 04:24:57;;;;;;;6.43;4.00;;;10.40;99.90;;;;;;5096584;28;20252;-67
2022/11/07 04:30:20;;;;;;;5.63;3.27;;;10.40;99.90;;;;;;5096847;28;20172;-67
2022/11/07 04:32:51;;;;;;;4.53;3.60;;;10.40;99.90;;;;;;5096398;28;20193;-67
2022/11/07 04:35:18;;;;;;;7.73;3.50;;;10.40;99.90;;;;;;5095369;28;20227;-67
2022/11/07 04:37:44;;;;;;;5.17;3.27;;;10.50;99.90;;;;;;5096192;28;20246;-67
2022/11/07 04:40:11;;;;;;;7.83;3.77;;;10.50;99.90;;;;;;5096158;28;20565;-67
2022/11/07 04:42:37;;;;;;;4.47;3.60;;;10.50;99.90;;;;;;5096145;28;20199;-67
2022/11/07 04:45:03;;;;;;;3.93;3.43;;;10.50;99.90;;;;;;5096809;28;20744;-67
2022/11/07 04:47:29;;;;;;;6.67;3.80;;;10.50;99.90;;;;;;5097781;28;20232;-67
2022/11/07 04:49:55;;;;;;;5.07;3.50;;;10.50;99.90;;;;;;5096821;28;20212;-67
2022/11/07 04:52:21;;;;;;;8.23;3.30;;;10.50;99.90;;;;;;5096337;28;20197;-67
2022/11/07 04:54:46;;;;;;;7.50;3.57;;;10.60;99.90;;;;;;5096179;28;20181;-67
2022/11/07 04:57:12;;;;;;;5.53;3.27;;;10.60;99.90;;;;;;5096347;28;20287;-67
2022/11/07 04:59:38;;;;;;;4.60;3.30;;;10.60;99.90;;;;;;5096211;28;20188;-67
2022/11/07 05:02:04;;;;;;;5.73;3.53;;;10.60;99.90;;;;;;5096242;28;20298;-67
2022/11/07 05:04:30;;;;;;;6.10;3.90;;;10.60;99.90;;;;;;5095973;28;20218;-67
2022/11/07 05:06:55;;;;;;;5.37;3.87;;;10.60;99.90;;;;;;5095907;28;20224;-66
2022/11/07 05:09:21;;;;;;;5.27;3.50;;;10.60;99.90;;;;;;5096433;28;20179;-67
2022/11/07 05:11:47;;;;;;;6.20;3.80;;;10.60;99.90;;;;;;5096070;28;20208;-67
2022/11/07 05:14:13;;;;;;;6.87;3.87;;;10.60;99.90;;;;;;5096366;28;20181;-67
2022/11/07 05:16:42;;;;;;;4.77;3.53;;;10.60;99.90;;;;;;5094579;28;20250;-67
2022/11/07 05:19:14;;;;;;;7.97;3.67;;;10.60;99.90;;;;;;5095944;28;20184;-67
2022/11/07 05:21:39;;;;;;;6.43;3.90;;;10.60;99.90;;;;;;5095968;28;20179;-67
2022/11/07 05:24:05;;;;;;;5.63;3.70;;;10.60;99.90;;;;;;5095314;28;20689;-68
2022/11/07 05:26:31;;;;;;;6.23;3.50;;;10.70;99.90;;;;;;5095263;28;20193;-67
2022/11/07 05:28:57;;;;;;;4.73;3.80;;;10.70;99.90;;;;;;5095286;28;20544;-67
2022/11/07 05:31:22;;;;;;;7.97;3.93;;;10.70;99.90;;;;;;5095284;28;20177;-67
2022/11/07 05:33:48;;;;;;;4.70;3.50;;;10.70;99.90;;;;;;5095131;28;20563;-67
2022/11/07 05:36:16;;;;;;;8.43;3.60;;;10.70;99.90;;;;;;5093851;28;20691;-67
2022/11/07 05:38:44;;;;;;;6.67;3.60;;;10.70;99.90;;;;;;5095157;28;20184;-67
2022/11/07 05:41:11;;;;;;;8.87;3.73;;;10.60;99.90;;;;;;5094909;28;20254;-67
2022/11/07 05:43:38;;;;;;;5.77;3.27;;;10.60;99.90;;;;;;5095115;28;20584;-68
2022/11/07 05:46:05;;;;;;;6.97;3.73;;;10.60;99.90;;;;;;5094379;28;20216;-67
2022/11/07 05:48:31;;;;;;;7.27;4.10;;;10.60;99.90;;;;;;5095265;28;20176;-67
2022/11/07 05:50:57;;;;;;;5.67;3.60;;;10.60;99.90;;;;;;5093670;28;20177;-67
2022/11/07 05:53:24;;;;;;;6.37;3.97;;;10.60;99.90;;;;;;5094782;28;20205;-67
2022/11/07 05:55:53;;;;;;;7.00;3.90;;;10.60;99.90;;;;;;5094571;28;20235;-67
2022/11/07 05:58:20;;;;;;;6.00;3.90;;;10.60;99.90;;;;;;5094698;28;20234;-66
2022/11/07 06:00:46;;;;;;;8.70;3.90;;;10.60;99.90;;;;;;5094605;28;20571;-67
2022/11/07 06:03:15;;;;;;;4.40;3.97;;;10.60;99.90;;;;;;5094465;28;20181;-67
2022/11/07 06:05:42;;;;;;;8.67;4.03;;;10.60;99.90;;;;;;5094664;28;20181;-67
2022/11/07 06:08:12;;;;;;;7.00;4.10;;;10.60;99.90;;;;;;5094519;28;20196;-67
2022/11/07 06:10:40;;;;;;;6.77;3.83;;;10.60;99.90;;;;;;5094464;28;20161;-67
2022/11/07 06:13:09;;;;;;;7.57;3.40;;;10.50;99.90;;;;;;5094252;28;20685;-67
2022/11/07 06:15:36;;;;;;;7.47;3.97;;;10.60;99.90;;;;;;5094467;28;20173;-67
2022/11/07 06:18:03;;;;;;;7.23;3.50;;;10.60;99.90;;;;;;5094349;28;20170;-67
2022/11/07 06:20:29;;;;;;;7.60;3.50;;;10.60;99.90;;;;;;5094895;28;20173;-67
2022/11/07 06:22:59;;;;;;;7.83;4.20;;;10.60;99.90;;;;;;5094206;28;20180;-67
2022/11/07 06:25:26;;;;;;;8.27;4.00;;;10.60;99.90;;;;;;5094054;28;20177;-67
2022/11/07 06:27:52;;;;;;;7.30;4.40;;;10.60;99.90;;;;;;5094110;28;20704;-67
2022/11/07 06:30:18;;;;;;;6.70;3.73;;;10.60;99.90;;;;;;5094132;28;20187;-67
2022/11/07 06:32:44;;;;;;;11.53;4.13;;;10.70;99.90;;;;;;5094015;28;20192;-67
2022/11/07 06:35:11;;;;;;;9.10;3.60;;;10.60;99.90;;;;;;5094038;28;20577;-67
2022/11/07 06:37:37;;;;;;;7.67;3.57;;;10.60;99.90;;;;;;5093982;28;20197;-67
2022/11/07 06:40:04;;;;;;;12.77;4.03;;;10.60;99.90;;;;;;5093777;28;20637;-67
2022/11/07 06:42:31;;;;;;;6.70;3.70;;;10.60;99.90;;;;;;5093718;28;20181;-67
2022/11/07 06:44:56;;;;;;;7.43;4.27;;;10.60;99.90;;;;;;5093767;28;20532;-67
2022/11/07 06:47:22;;;;;;;11.63;4.10;;;10.70;99.90;;;;;;5092471;28;20212;-67
2022/11/07 06:49:48;;;;;;;9.93;4.20;;;10.70;99.90;;;;;;5093804;28;20645;-67
2022/11/07 06:52:14;;;;;;;7.80;3.90;;;10.80;99.90;;;;;;5094248;28;20197;-67
2022/11/07 06:54:39;;;;;;;7.83;3.83;;;10.80;99.90;;;;;;5092353;28;20177;-67
2022/11/07 06:57:05;;;;;;;10.63;3.97;;;10.90;99.90;;;;;;5093180;28;20189;-67
2022/11/07 06:59:31;;;;;;;10.37;3.93;;;10.90;99.90;;;;;;5094161;28;20172;-67
2022/11/07 07:01:56;;;;;;;6.43;3.27;;;11.00;99.90;;;;;;5093701;28;20176;-67
2022/11/07 07:04:22;;;;;;;7.87;3.83;;;11.10;99.90;;;;;;5092603;28;20176;-67
2022/11/07 07:06:48;;;;;;;10.33;3.67;;;11.10;99.90;;;;;;5093845;28;20189;-67
2022/11/07 07:09:14;;;;;;;7.57;3.60;;;11.20;99.90;;;;;;5093945;28;20197;-67
2022/11/07 07:11:41;;;;;;;6.90;3.53;;;11.30;99.90;;;;;;5093306;28;20653;-68
2022/11/07 07:14:07;;;;;;;7.80;3.80;;;11.30;99.90;;;;;;5093457;28;20641;-67
2022/11/07 07:16:33;;;;;;;7.67;3.87;;;11.30;99.90;;;;;;5092570;28;20246;-67
2022/11/07 07:18:59;;;;;;;7.90;3.40;;;11.30;99.90;;;;;;5093598;28;20161;-67
2022/11/07 07:21:25;;;;;;;12.30;3.60;;;11.30;99.90;;;;;;5092313;28;20177;-67
2022/11/07 07:23:51;;;;;;;6.90;3.20;;;11.40;99.90;;;;;;5093504;28;20649;-67
2022/11/07 07:26:17;;;;;;;10.40;3.90;;;11.40;99.90;;;;;;5093223;28;20199;-67
2022/11/07 07:28:43;;;;;;;6.93;3.63;;;11.40;99.90;;;;;;5093439;28;20173;-67
2022/11/07 07:31:15;;;;;;;6.97;4.03;;;11.40;99.90;;;;;;5093864;28;20169;-67
2022/11/07 07:33:41;;;;;;;8.63;3.70;;;11.40;99.90;;;;;;5093167;28;20664;-67
2022/11/07 07:36:08;;;;;;;11.83;4.13;;;11.40;99.90;;;;;;5093193;28;20242;-67
2022/11/07 07:38:34;;;;;;;6.03;3.60;;;11.40;99.90;;;;;;5093683;28;20207;-67
2022/11/07 07:41:00;;;;;;;8.73;3.33;;;11.50;99.90;;;;;;5093116;28;20653;-67
2022/11/07 07:43:27;;;;;;;7.83;3.40;;;11.50;99.90;;;;;;5093083;28;20181;-67
2022/11/07 07:45:56;;;;;;;9.07;3.50;;;11.50;99.90;;;;;;5093092;28;20213;-68
2022/11/07 07:48:22;;;;;;;7.97;3.37;;;11.50;99.90;;;;;;5093485;28;20223;-67
2022/11/07 07:50:48;;;;;;;8.50;3.50;;;11.60;99.90;;;;;;5093248;28;20177;-67
2022/11/07 07:53:15;;;;;;;9.03;3.47;;;11.60;99.90;;;;;;5091771;28;20200;-67
2022/11/07 07:55:41;;;;;;;11.87;3.93;;;11.70;99.90;;;;;;5092965;28;20173;-67
2022/11/07 07:58:06;;;;;;;7.00;3.30;;;11.80;99.90;;;;;;5093198;28;20181;-67
2022/11/07 08:00:33;;;;;;;9.73;3.70;;;11.80;99.90;;;;;;5093397;28;20169;-67
2022/11/07 08:03:07;;;;;;;9.57;3.30;;;11.80;99.90;;;;;;5093464;28;20201;-67
2022/11/07 08:05:33;;;;;;;11.20;3.77;;;11.90;99.90;;;;;;5093236;28;20221;-67
2022/11/07 08:07:59;;;;;;;6.43;3.27;;;11.80;99.90;;;;;;5092564;28;20276;-67
2022/11/07 08:10:25;;;;;;;14.73;3.80;;;11.90;99.90;;;;;;5096959;28;20212;-67
2022/11/07 08:12:51;;;;;;;6.63;3.40;;;11.90;99.90;;;;;;5095424;28;20208;-67
2022/11/07 08:15:18;;;;;;;9.57;3.70;;;12.00;99.90;;;;;;5097018;28;20682;-68
2022/11/07 08:17:44;;;;;;;11.10;4.07;;;12.00;99.90;;;;;;5096853;28;20665;-69
2022/11/07 08:20:12;;;;;;;10.23;3.73;;;12.10;99.90;;;;;;5095451;28;20177;-69
2022/11/07 08:22:38;;;;;;;12.07;4.00;;;12.10;99.90;;;;;;5097115;28;20177;-69
2022/11/07 08:25:06;;;;;;;4.57;3.20;;;12.20;99.90;;;;;;5095093;28;20218;-69
2022/11/07 08:27:31;;;;;;;7.13;3.37;;;12.20;99.90;;;;;;5095147;28;20204;-69
2022/11/07 08:29:58;;;;;;;5.57;3.30;;;12.20;99.90;;;;;;5097083;28;20587;-69
2022/11/07 08:32:26;;;;;;;7.90;4.00;;;12.30;99.90;;;;;;5096450;28;20198;-69
2022/11/07 08:34:52;;;;;;;7.55;3.85;;;12.30;99.90;;;;;;5096680;28;20169;-69
2022/11/07 08:37:18;;;;;;;9.50;3.70;;;12.40;99.90;;;;;;5096202;28;20246;-69
2022/11/07 08:39:43;;;;;;;9.80;3.70;;;12.40;99.90;;;;;;5096067;28;20244;-69
2022/11/07 08:42:09;;;;;;;9.07;3.50;;;12.50;99.90;;;;;;5096313;28;20192;-69
2022/11/07 08:44:35;;;;;;;8.73;3.93;;;12.60;99.90;;;;;;5096228;28;20227;-69
2022/11/07 08:47:05;;;;;;;6.43;3.50;;;12.70;99.90;;;;;;5096434;28;20246;-69
2022/11/07 08:49:31;;;;;;;10.35;3.67;;;12.70;99.90;;;;;;5096095;28;20223;-69
2022/11/07 08:51:57;;;;;;;3.93;3.10;;;12.70;99.90;;;;;;5096023;28;20222;-69
2022/11/07 08:54:24;;;;;;;6.03;3.70;;;12.70;99.90;;;;;;5096218;28;20248;-68
2022/11/07 08:56:50;;;;;;;9.18;3.60;;;12.60;99.90;;;;;;5095896;28;20657;-69
2022/11/07 08:59:17;;;;;;;8.40;3.15;;;12.60;99.90;;;;;;5094655;28;20177;-69
2022/11/07 09:01:43;;;;;;;8.40;3.53;;;12.60;99.90;;;;;;5095844;28;20165;-69
2022/11/07 09:04:08;;;;;;;6.47;3.50;;;12.50;99.90;;;;;;5096329;28;20251;-69
2022/11/07 09:06:34;;;;;;;6.18;3.60;;;12.50;99.90;;;;;;5095677;28;20193;-69
2022/11/07 09:09:01;;;;;;;10.77;3.80;;;12.50;99.90;;;;;;5095687;28;20170;-69
2022/11/07 09:11:27;;;;;;;8.10;3.22;;;12.50;99.90;;;;;;5094132;28;20242;-69
2022/11/07 09:13:54;;;;;;;12.68;3.80;;;12.50;99.90;;;;;;5095769;28;20259;-69
2022/11/07 09:16:21;;;;;;;7.15;3.25;;;12.50;99.90;;;;;;5095691;28;20181;-69
2022/11/07 09:18:49;;;;;;;8.85;3.72;;;12.60;99.90;;;;;;5095749;28;20170;-69
2022/11/07 09:21:15;;;;;;;9.93;4.00;;;12.70;99.90;;;;;;5095004;28;20219;-69
2022/11/07 09:23:40;;;;;;;11.45;3.70;;;12.70;99.90;;;;;;5095324;28;20207;-69
2022/11/07 09:26:07;;;;;;;8.18;3.20;;;12.70;99.90;;;;;;5093861;28;20201;-69
2022/11/07 09:28:33;;;;;;;7.65;3.40;;;12.70;99.90;;;;;;5093988;28;20610;-69
2022/11/07 09:31:01;;;;;;;10.35;3.83;;;12.80;99.90;;;;;;5095760;28;20521;-69
2022/11/07 09:33:27;;;;;;;7.53;3.13;;;12.80;99.90;;;;;;5095549;28;20268;-69
2022/11/07 09:35:53;;;;;;;8.80;3.47;;;12.70;99.90;;;;;;5094707;28;20220;-69
2022/11/07 09:38:19;;;;;;;6.55;3.63;;;12.70;99.90;;;;;;5094970;28;20203;-69
2022/11/07 09:41:16;;;;;;;12.52;3.50;;;12.80;99.90;;;;;;5096067;28;20230;-69
2022/11/07 09:43:54;;;;;;;6.50;3.20;;;12.80;99.90;;;;;;5095058;28;20181;-69
2022/11/07 09:46:56;;;;;;;6.10;3.42;;;12.90;99.90;;;;;;5094914;28;20208;-69
2022/11/07 09:49:52;;;;;;;7.55;3.80;;;12.80;99.90;;;;;;5094957;28;20260;-69
2022/11/07 09:52:30;;;;;;;4.93;3.30;;;12.80;99.90;;;;;;5094982;28;20191;-69
2022/11/07 09:55:13;;;;;;;9.27;3.83;;;12.90;99.90;;;;;;5094686;28;20166;-69
2022/11/07 09:57:39;;;;;;;7.00;3.75;;;12.90;99.90;;;;;;5094670;28;20193;-69
2022/11/07 10:00:14;;;;;;;5.78;3.67;;;13.00;99.90;;;;;;5094739;28;20173;-69
2022/11/07 10:02:48;;;;;;;6.13;3.58;;;13.00;99.90;;;;;;5094741;28;20164;-69
2022/11/07 10:05:42;;;;;;;10.00;3.55;;;13.00;99.90;;;;;;5094979;28;20160;-69
2022/11/07 10:08:20;;;;;;;11.55;3.85;;;13.10;99.90;;;;;;5093361;28;20173;-69
2022/11/07 10:10:57;;;;;;;6.57;3.83;;;13.10;99.90;;;;;;5093164;28;20173;-69
2022/11/07 10:13:42;;;;;;;7.53;3.55;;;13.10;99.90;;;;;;5094332;28;20202;-69
2022/11/07 10:16:31;;;;;;;14.02;4.85;;;13.10;99.90;;;;;;5094305;28;20556;-69
2022/11/07 10:19:09;;;;;;;7.45;3.50;;;13.00;99.90;;;;;;5094454;28;20164;-69
2022/11/07 10:21:59;;;;;;;7.47;3.58;;;13.00;99.90;;;;;;5093095;28;20166;-69
2022/11/07 10:24:45;;;;;;;5.60;3.40;;;13.00;99.90;;;;;;5094380;28;20149;-69
2022/11/07 10:27:12;;;;;;;7.43;3.45;;;12.90;99.90;;;;;;5092865;28;20272;-69
2022/11/07 10:29:49;;;;;;;8.23;3.30;;;12.90;99.90;;;;;;5092885;28;20177;-69
2022/11/07 10:32:36;;;;;;;11.25;3.63;;;13.00;99.90;;;;;;5092822;28;20203;-69
2022/11/07 10:35:23;;;;;;;8.35;3.65;;;12.90;99.90;;;;;;5094128;28;20157;-69
2022/11/07 10:37:56;;;;;;;6.75;3.03;;;13.00;99.90;;;;;;5094324;28;20188;-69
2022/11/07 10:40:27;;;;;;;8.90;3.58;;;13.00;99.90;;;;;;5093979;28;20149;-69
2022/11/07 10:42:54;;;;;;;7.60;3.45;;;13.00;99.90;;;;;;5092525;28;20180;-69
2022/11/07 10:45:21;;;;;;;3.30;2.85;;;12.90;99.90;;;;;;5093826;28;20186;-69
2022/11/07 10:47:59;;;;;;;3.75;2.85;;;12.90;99.90;;;;;;5093906;28;20195;-69
2022/11/07 10:50:25;;;;;;;7.65;3.22;;;12.80;99.90;;;;;;5094210;28;20177;-69
2022/11/07 10:53:17;;;;;;;5.68;3.10;;;12.70;99.90;;;;;;5093718;28;20197;-69
2022/11/07 10:55:45;;;;;;;7.32;3.40;;;12.60;99.90;;;;;;5093562;28;20185;-69
2022/11/07 10:58:27;;;;;;;4.97;3.00;;;12.60;99.90;;;;;;5093735;28;20172;-70
2022/11/07 11:01:08;;;;;;;6.68;3.40;;;12.60;99.90;;;;;;5092389;28;20653;-70
2022/11/07 11:03:46;;;;;;;7.18;3.60;;;12.50;99.90;;;;;;5092647;28;20173;-69
2022/11/07 11:06:17;;;;;;;8.30;3.60;;;12.40;99.90;;;;;;5092772;28;20204;-69
2022/11/07 11:08:45;;;;;;;7.40;3.78;;;12.30;99.90;;;;;;5092784;28;20215;-70
2022/11/07 11:11:20;;;;;;;8.63;4.05;;;12.30;99.90;;;;;;5093586;28;20582;-69
2022/11/07 11:13:46;;;;;;;9.38;4.07;;;12.20;99.90;;;;;;5092191;28;20214;-69
2022/11/07 11:16:27;;;;;;;7.22;3.63;;;12.20;99.90;;;;;;5093411;28;20211;-69
2022/11/07 11:19:02;;;;;;;10.13;4.10;;;12.10;99.90;;;;;;5092217;28;20581;-69
2022/11/07 11:21:39;;;;;;;9.23;3.60;;;12.10;99.90;;;;;;5093503;28;20157;-69
2022/11/07 11:24:29;;;;;;;6.90;3.83;;;12.10;99.90;;;;;;5092010;28;20176;-69
2022/11/07 11:27:02;;;;;;;7.60;3.80;;;12.10;99.90;;;;;;5093155;28;20196;-69
2022/11/07 11:30:00;;;;;;;9.83;4.03;;;12.20;99.90;;;;;;5093450;28;20180;-69
2022/11/07 11:32:28;;;;;;;8.75;3.90;;;12.30;99.90;;;;;;5093565;28;20185;-69
2022/11/07 11:34:58;;;;;;;8.65;4.07;;;12.40;99.90;;;;;;5093276;28;20169;-69
2022/11/07 11:37:26;;;;;;;8.82;4.00;;;12.50;99.90;;;;;;5092088;28;20203;-69
2022/11/07 11:39:57;;;;;;;10.10;4.05;;;12.50;99.90;;;;;;5093184;28;20192;-69
2022/11/07 11:42:46;;;;;;;6.65;4.00;;;12.50;99.90;;;;;;5092008;28;20192;-69
2022/11/07 11:45:37;;;;;;;9.07;3.65;;;12.60;99.90;;;;;;5095900;28;20196;-69
2022/11/07 11:48:11;;;;;;;7.40;3.92;;;12.60;99.90;;;;;;5096636;28;20197;-69
2022/11/07 11:50:48;;;;;;;10.73;4.00;;;12.70;99.90;;;;;;5097172;28;20244;-69
2022/11/07 11:53:17;;;;;;;5.97;3.97;;;12.70;99.90;;;;;;5095839;28;20196;-70
2022/11/07 11:56:00;;;;;;;7.40;3.97;;;12.80;99.90;;;;;;5097136;28;20201;-70
2022/11/07 11:58:32;;;;;;;8.35;3.83;;;12.90;99.90;;;;;;5097352;28;20202;-69
2022/11/07 12:01:30;;;;;;;9.52;3.40;;;13.00;99.90;;;;;;5097067;28;20161;-69
2022/11/07 12:04:18;;;;;;;10.27;4.05;;;13.00;99.90;;;;;;5097365;28;20169;-70
2022/11/07 12:06:45;;;;;;;7.45;3.42;;;13.00;99.90;;;;;;5096786;28;20710;-69
2022/11/07 12:09:13;;;;;;;9.98;4.30;;;13.10;99.90;;;;;;5097519;28;20217;-68
2022/11/07 12:12:10;;;;;;;7.95;3.45;;;13.10;99.90;;;;;;5096870;28;20180;-68
2022/11/07 12:14:38;;;;;;;10.45;4.13;;;13.20;99.90;;;;;;5095508;28;20645;-68
2022/11/07 12:17:24;;;;;;;5.40;3.45;;;13.30;99.90;;;;;;5097236;28;20191;-68
2022/11/07 12:20:08;;;;;;;11.10;3.95;;;13.40;99.90;;;;;;5096715;28;20160;-68
2022/11/07 12:23:06;;;;;;;5.10;3.38;;;13.40;99.90;;;;;;5096901;28;20169;-68
2022/11/07 12:25:49;;;;;;;6.78;3.50;;;13.50;99.90;;;;;;5096470;28;20179;-68
2022/11/07 12:28:33;;;;;;;9.55;3.80;;;13.50;99.90;;;;;;5095346;28;20264;-68
2022/11/07 12:31:27;;;;;;;6.60;3.78;;;13.50;99.90;;;;;;5096500;28;20215;-68
2022/11/07 12:34:18;;;;;;;7.97;3.42;;;13.50;99.90;;;;;;5096403;28;20230;-68
2022/11/07 12:36:53;;;;;;;8.57;3.75;;;13.50;99.90;;;;;;5095044;28;20192;-68
2022/11/07 12:39:36;;;;;;;9.85;3.60;;;13.50;99.90;;;;;;5096268;28;20230;-68
2022/11/07 12:42:07;;;;;;;10.07;3.47;;;13.50;99.90;;;;;;5094812;28;20215;-68
2022/11/07 12:45:28;;;;;;;12.85;3.47;;;13.50;99.90;;;;;;5096381;28;20153;-68
2022/11/07 12:48:14;;;;;;;6.60;3.92;;;13.40;99.90;;;;;;5094387;28;20699;-68
2022/11/07 12:50:48;;;;;;;6.15;3.65;;;13.50;99.90;;;;;;5096677;28;20218;-68
2022/11/07 12:53:28;;;;;;;9.05;3.65;;;13.50;99.90;;;;;;5096060;28;20192;-68
2022/11/07 12:56:10;;;;;;;7.68;3.70;;;13.50;99.90;;;;;;5094932;28;20216;-68
2022/11/07 12:58:39;;;;;;;7.32;3.53;;;13.50;99.90;;;;;;5096217;28;20157;-68
2022/11/07 13:01:06;;;;;;;8.48;3.50;;;13.50;99.90;;;;;;5095841;28;20176;-68
2022/11/07 13:03:48;;;;;;;8.20;3.90;;;13.60;99.90;;;;;;5095990;28;20208;-68
2022/11/07 13:06:44;;;;;;;6.63;3.50;;;13.80;99.90;;;;;;5095991;28;20731;-68
2022/11/07 13:09:47;;;;;;;10.80;6.10;;;13.90;99.90;;;;;;5095610;28;20212;-68